Time;durP1;ratioP1;P1;durP2;ratioP2;P2;SDS_P1;SDS_P2;PMS_P1;PMS_P2;Temp;Humidity;BMP_temperature;BMP_pressure;BME280_temperature;BME280_humidity;BME280_pressure;Samples;Min_cycle;Max_cycle;Signal;HPM_P1;HPM_P2
2023/05/31 00:01:58;;;;;;;8.88;7.63;;;;;;;;;;5085594;28;20199;-65
2023/05/31 00:04:23;;;;;;;10.60;7.40;;;;;;;;;;5089288;28;20047;-65
2023/05/31 00:06:48;;;;;;;10.82;8.38;;;;;;;;;;5091272;28;20059;-65
2023/05/31 00:09:14;;;;;;;11.40;9.13;;;;;;;;;;5085855;28;20024;-64
2023/05/31 00:11:39;;;;;;;12.10;7.93;;;;;;;;;;5094113;28;20068;-65
2023/05/31 00:14:04;;;;;;;14.90;8.90;;;;;;;;;;5091391;28;20027;-65
2023/05/31 00:16:30;;;;;;;12.45;8.75;;;;;;;;;;5103491;28;20028;-65
2023/05/31 00:18:55;;;;;;;11.18;8.50;;;;;;;;;;5078124;28;20039;-64
2023/05/31 00:21:20;;;;;;;12.70;8.57;;;;;;;;;;5068188;28;20757;-64
2023/05/31 00:23:45;;;;;;;11.70;9.30;;;;;;;;;;5054728;28;20035;-64
2023/05/31 00:26:11;;;;;;;11.95;9.48;;;;;;;;;;5064897;28;20078;-64
2023/05/31 00:28:36;;;;;;;19.05;9.52;;;;;;;;;;5090568;28;20035;-64
2023/05/31 00:31:02;;;;;;;11.85;8.82;;;;;;;;;;5100575;28;20442;-65
2023/05/31 00:33:27;;;;;;;9.70;8.15;;;;;;;;;;5096058;28;20035;-65
2023/05/31 00:35:52;;;;;;;13.95;9.18;;;;;;;;;;5100504;28;20123;-64
2023/05/31 00:38:17;;;;;;;10.43;8.30;;;;;;;;;;5095631;28;20016;-64
2023/05/31 00:40:44;;;;;;;22.42;9.65;;;;;;;;;;5100920;28;20045;-65
2023/05/31 00:43:10;;;;;;;11.80;9.13;;;;;;;;;;5095464;28;20039;-64
2023/05/31 00:45:35;;;;;;;11.93;9.02;;;;;;;;;;5101397;28;20032;-65
2023/05/31 00:48:01;;;;;;;11.77;8.55;;;;;;;;;;5100225;28;20085;-64
2023/05/31 00:50:26;;;;;;;13.20;9.02;;;;;;;;;;5105336;28;20027;-65
2023/05/31 00:52:53;;;;;;;12.23;8.73;;;;;;;;;;5107906;28;20055;-64
2023/05/31 00:55:18;;;;;;;10.68;8.50;;;;;;;;;;5105368;28;20066;-64
2023/05/31 00:57:44;;;;;;;12.63;9.13;;;;;;;;;;5100321;28;20063;-64
2023/05/31 01:00:09;;;;;;;14.40;9.52;;;;;;;;;;5105429;28;20081;-64
2023/05/31 01:02:37;;;;;;;13.60;9.18;;;;;;;;;;5089560;28;20028;-64
2023/05/31 01:05:04;;;;;;;14.40;9.25;;;;;;;;;;5064556;28;20019;-65
2023/05/31 01:07:29;;;;;;;11.68;9.32;;;;;;;;;;5067920;28;20077;-65
2023/05/31 01:09:54;;;;;;;13.45;9.57;;;;;;;;;;5069510;28;20118;-64
2023/05/31 01:12:31;;;;;;;11.40;10.20;;;;;;;;;;5086473;28;20806;-64
2023/05/31 01:15:09;;;;;;;13.95;9.65;;;;;;;;;;5051705;28;20035;-65
2023/05/31 01:17:46;;;;;;;13.30;9.50;;;;;;;;;;5059433;28;20176;-65
2023/05/31 01:20:13;;;;;;;10.55;8.60;;;;;;;;;;5071569;28;20038;-65
2023/05/31 01:22:41;;;;;;;14.18;9.35;;;;;;;;;;5065842;28;20028;-65
2023/05/31 01:25:09;;;;;;;14.68;9.18;;;;;;;;;;5085928;28;20071;-65
2023/05/31 01:27:35;;;;;;;12.23;9.38;;;;;;;;;;5086981;28;20179;-64
2023/05/31 01:30:01;;;;;;;11.73;9.70;;;;;;;;;;5063574;28;20200;-64
2023/05/31 01:32:27;;;;;;;15.70;10.43;;;;;;;;;;5070131;28;20022;-64
2023/05/31 01:34:52;;;;;;;13.75;10.00;;;;;;;;;;5069709;28;20016;-65
2023/05/31 01:37:18;;;;;;;16.10;10.88;;;;;;;;;;5100608;28;20015;-64
2023/05/31 01:39:43;;;;;;;19.40;10.32;;;;;;;;;;5095876;28;20027;-65
2023/05/31 01:42:09;;;;;;;13.82;10.68;;;;;;;;;;5106785;28;20035;-64
2023/05/31 01:44:34;;;;;;;12.88;9.82;;;;;;;;;;5112608;28;20027;-64
2023/05/31 01:47:00;;;;;;;13.07;10.07;;;;;;;;;;5111576;28;20166;-64
2023/05/31 01:49:25;;;;;;;16.40;10.13;;;;;;;;;;5112273;28;20028;-64
2023/05/31 01:51:50;;;;;;;12.57;10.95;;;;;;;;;;5112390;28;20040;-64
2023/05/31 01:54:16;;;;;;;14.55;10.20;;;;;;;;;;5092979;28;20739;-64
2023/05/31 01:56:41;;;;;;;13.25;9.75;;;;;;;;;;5092574;28;20024;-64
2023/05/31 01:59:07;;;;;;;14.65;11.60;;;;;;;;;;5096987;28;20099;-64
2023/05/31 02:01:32;;;;;;;15.90;11.57;;;;;;;;;;5081545;28;20024;-64
2023/05/31 02:03:58;;;;;;;17.90;10.50;;;;;;;;;;5063724;28;20043;-64
2023/05/31 02:06:26;;;;;;;12.43;11.13;;;;;;;;;;5054110;28;20804;-65
2023/05/31 02:08:52;;;;;;;16.40;11.35;;;;;;;;;;5057226;28;20189;-65
2023/05/31 02:11:17;;;;;;;16.85;11.45;;;;;;;;;;5069781;28;20027;-64
2023/05/31 02:13:42;;;;;;;19.13;12.82;;;;;;;;;;5063631;28;20036;-64
2023/05/31 02:16:08;;;;;;;16.85;12.30;;;;;;;;;;5050711;28;20999;-64
2023/05/31 02:18:35;;;;;;;16.25;11.95;;;;;;;;;;5058685;28;20055;-64
2023/05/31 02:21:00;;;;;;;13.20;11.45;;;;;;;;;;5065762;28;20038;-64
2023/05/31 02:23:26;;;;;;;15.68;12.40;;;;;;;;;;5061053;28;20032;-64
2023/05/31 02:25:51;;;;;;;17.85;12.98;;;;;;;;;;5059120;28;20064;-64
2023/05/31 02:28:16;;;;;;;15.18;12.25;;;;;;;;;;5050530;28;20047;-64
2023/05/31 02:30:52;;;;;;;15.77;12.70;;;;;;;;;;5060805;28;20914;-64
2023/05/31 02:33:17;;;;;;;14.18;12.52;;;;;;;;;;5070859;28;20123;-65
2023/05/31 02:35:43;;;;;;;16.13;13.48;;;;;;;;;;5069616;28;20019;-64
2023/05/31 02:38:08;;;;;;;17.55;11.75;;;;;;;;;;5070841;28;20829;-64
2023/05/31 02:40:33;;;;;;;17.08;13.23;;;;;;;;;;5070161;28;20050;-65
2023/05/31 02:42:58;;;;;;;16.35;13.65;;;;;;;;;;5097525;28;20019;-64
2023/05/31 02:45:24;;;;;;;17.38;13.85;;;;;;;;;;5085963;28;20032;-65
2023/05/31 02:47:49;;;;;;;19.13;14.02;;;;;;;;;;5069232;28;20142;-64
2023/05/31 02:50:14;;;;;;;20.05;13.68;;;;;;;;;;5068488;28;20858;-65
2023/05/31 02:52:40;;;;;;;17.98;12.93;;;;;;;;;;5066996;28;20127;-64
2023/05/31 02:55:05;;;;;;;19.77;13.95;;;;;;;;;;5097660;28;20458;-65
2023/05/31 02:57:31;;;;;;;16.15;14.30;;;;;;;;;;5102464;28;20107;-64
2023/05/31 02:59:57;;;;;;;17.17;14.18;;;;;;;;;;5100868;28;20074;-64
2023/05/31 03:02:24;;;;;;;17.52;14.82;;;;;;;;;;5103332;28;20027;-64
2023/05/31 03:04:50;;;;;;;17.60;13.45;;;;;;;;;;5102666;28;20020;-64
2023/05/31 03:07:16;;;;;;;16.98;13.85;;;;;;;;;;5091845;28;20028;-64
2023/05/31 03:09:41;;;;;;;17.67;14.13;;;;;;;;;;5092017;28;20027;-64
2023/05/31 03:12:06;;;;;;;18.48;15.63;;;;;;;;;;5072043;28;20123;-64
2023/05/31 03:14:32;;;;;;;29.33;14.27;;;;;;;;;;5057008;28;20094;-64
2023/05/31 03:16:57;;;;;;;17.13;14.20;;;;;;;;;;5063858;28;20127;-64
2023/05/31 03:19:22;;;;;;;17.13;14.75;;;;;;;;;;5062316;28;20102;-64
2023/05/31 03:21:48;;;;;;;16.75;14.90;;;;;;;;;;5069090;28;20817;-64
2023/05/31 03:24:13;;;;;;;17.92;15.10;;;;;;;;;;5078447;28;20378;-64
2023/05/31 03:26:38;;;;;;;19.77;15.13;;;;;;;;;;5103830;28;20056;-65
2023/05/31 03:29:03;;;;;;;18.77;15.70;;;;;;;;;;5107878;28;20023;-64
2023/05/31 03:31:29;;;;;;;17.80;15.70;;;;;;;;;;5110253;28;20031;-64
2023/05/31 03:33:54;;;;;;;20.65;15.55;;;;;;;;;;5102194;28;20028;-64
2023/05/31 03:36:19;;;;;;;18.85;15.48;;;;;;;;;;5101859;28;20040;-64
2023/05/31 03:38:45;;;;;;;23.17;16.05;;;;;;;;;;5107333;28;20024;-65
2023/05/31 03:41:10;;;;;;;23.75;15.55;;;;;;;;;;5101567;28;20430;-65
2023/05/31 03:43:35;;;;;;;20.67;15.88;;;;;;;;;;5106288;28;20028;-65
2023/05/31 03:46:01;;;;;;;22.65;15.88;;;;;;;;;;5100936;28;20470;-65
2023/05/31 03:48:26;;;;;;;21.55;16.33;;;;;;;;;;5105972;28;20053;-64
2023/05/31 03:50:52;;;;;;;22.75;16.95;;;;;;;;;;5103752;28;20093;-65
2023/05/31 03:53:17;;;;;;;19.80;15.45;;;;;;;;;;5106553;28;20042;-65
2023/05/31 03:55:42;;;;;;;18.70;15.70;;;;;;;;;;5102120;28;20023;-65
2023/05/31 03:58:07;;;;;;;18.38;15.60;;;;;;;;;;5106918;28;20128;-65
2023/05/31 04:00:34;;;;;;;20.52;15.93;;;;;;;;;;5106301;28;20027;-64
2023/05/31 04:02:59;;;;;;;23.08;16.25;;;;;;;;;;5104418;28;20474;-65
2023/05/31 04:05:24;;;;;;;23.27;16.27;;;;;;;;;;5094291;28;20059;-64
2023/05/31 04:07:50;;;;;;;21.48;16.15;;;;;;;;;;5108440;28;20133;-65
2023/05/31 04:10:15;;;;;;;21.85;14.50;;;;;;;;;;5097937;28;20103;-65
2023/05/31 04:12:40;;;;;;;21.45;15.93;;;;;;;;;;5092706;28;20069;-65
2023/05/31 04:15:06;;;;;;;16.90;14.65;;;;;;;;;;5097602;28;20024;-65
2023/05/31 04:17:31;;;;;;;22.45;16.10;;;;;;;;;;5092851;28;20024;-65
2023/05/31 04:19:56;;;;;;;19.75;15.30;;;;;;;;;;5099604;28;20541;-65
2023/05/31 04:22:22;;;;;;;20.92;16.42;;;;;;;;;;5097663;28;20035;-65
2023/05/31 04:24:47;;;;;;;22.00;16.60;;;;;;;;;;5098862;28;20069;-64
2023/05/31 04:27:18;;;;;;;18.92;15.50;;;;;;;;;;5097192;28;20042;-65
2023/05/31 04:29:43;;;;;;;19.98;16.42;;;;;;;;;;5096942;28;20081;-64
2023/05/31 04:32:09;;;;;;;20.95;16.60;;;;;;;;;;5102005;28;20462;-64
2023/05/31 04:34:36;;;;;;;18.65;16.08;;;;;;;;;;5097471;28;20027;-64
2023/05/31 04:37:02;;;;;;;17.40;15.43;;;;;;;;;;5103454;28;20485;-65
2023/05/31 04:39:27;;;;;;;22.33;17.25;;;;;;;;;;5097582;28;20031;-64
2023/05/31 04:41:53;;;;;;;17.63;15.60;;;;;;;;;;5102850;28;20020;-65
2023/05/31 04:44:21;;;;;;;22.95;16.52;;;;;;;;;;5097064;28;20039;-64
2023/05/31 04:46:46;;;;;;;17.50;15.65;;;;;;;;;;5102424;28;20032;-64
2023/05/31 04:49:12;;;;;;;19.52;15.88;;;;;;;;;;5097488;28;20026;-64
2023/05/31 04:51:38;;;;;;;24.40;15.60;;;;;;;;;;5102268;28;20432;-65
2023/05/31 04:54:03;;;;;;;17.92;15.07;;;;;;;;;;5097174;28;20020;-64
2023/05/31 04:56:28;;;;;;;20.63;15.40;;;;;;;;;;5102280;28;20028;-65
2023/05/31 04:58:53;;;;;;;19.10;14.48;;;;;;;;;;5097300;28;20060;-64
2023/05/31 05:01:19;;;;;;;20.38;15.93;;;;;;;;;;5102798;28;20486;-65
2023/05/31 05:03:44;;;;;;;19.20;15.75;;;;;;;;;;5095738;28;20020;-65
2023/05/31 05:06:14;;;;;;;17.95;15.35;;;;;;;;;;5096939;28;20035;-65
2023/05/31 05:08:39;;;;;;;17.02;14.40;;;;;;;;;;5109370;28;20028;-65
2023/05/31 05:11:05;;;;;;;18.38;14.32;;;;;;;;;;5105400;28;20019;-65
2023/05/31 05:13:30;;;;;;;17.38;14.55;;;;;;;;;;5099154;28;20107;-64
2023/05/31 05:15:55;;;;;;;16.88;14.02;;;;;;;;;;5101853;28;20378;-65
2023/05/31 05:18:21;;;;;;;17.98;14.23;;;;;;;;;;5085694;28;20428;-65
2023/05/31 05:20:46;;;;;;;17.48;15.68;;;;;;;;;;5092044;28;20020;-65
2023/05/31 05:23:11;;;;;;;17.33;14.80;;;;;;;;;;5106467;28;20577;-65
2023/05/31 05:25:37;;;;;;;17.13;14.30;;;;;;;;;;5106299;28;20020;-65
2023/05/31 05:28:02;;;;;;;16.15;14.32;;;;;;;;;;5108613;28;20008;-65
2023/05/31 05:30:28;;;;;;;16.08;13.98;;;;;;;;;;5095618;28;20451;-65
2023/05/31 05:32:53;;;;;;;19.30;14.55;;;;;;;;;;5107651;28;20016;-65
2023/05/31 05:35:18;;;;;;;15.98;14.18;;;;;;;;;;5088557;28;20016;-65
2023/05/31 05:37:44;;;;;;;16.15;13.48;;;;;;;;;;5111681;28;20597;-64
2023/05/31 05:40:09;;;;;;;20.08;14.73;;;;;;;;;;5106654;28;20215;-64
2023/05/31 05:42:37;;;;;;;21.13;13.52;;;;;;;;;;5111647;28;20443;-64
2023/05/31 05:45:08;;;;;;;18.08;13.77;;;;;;;;;;5112353;28;20363;-65
2023/05/31 05:47:37;;;;;;;16.38;13.05;;;;;;;;;;5100283;28;20020;-65
2023/05/31 05:50:02;;;;;;;20.83;13.48;;;;;;;;;;5110696;28;20020;-65
2023/05/31 05:52:27;;;;;;;23.25;13.98;;;;;;;;;;5111223;28;20077;-65
2023/05/31 05:54:52;;;;;;;15.70;12.57;;;;;;;;;;5110593;28;20382;-64
2023/05/31 05:57:19;;;;;;;16.65;12.48;;;;;;;;;;5112078;28;20016;-65
2023/05/31 05:59:44;;;;;;;16.70;12.38;;;;;;;;;;5105942;28;20032;-65
2023/05/31 06:02:10;;;;;;;17.70;12.95;;;;;;;;;;5111895;28;20030;-64
2023/05/31 06:04:35;;;;;;;17.30;13.50;;;;;;;;;;5104969;28;20069;-65
2023/05/31 06:07:00;;;;;;;16.63;13.30;;;;;;;;;;5088569;28;20526;-65
2023/05/31 06:09:25;;;;;;;16.88;12.80;;;;;;;;;;5112559;28;20625;-65
2023/05/31 06:11:51;;;;;;;15.90;12.75;;;;;;;;;;5108979;28;20045;-65
2023/05/31 06:14:17;;;;;;;13.50;11.82;;;;;;;;;;5092939;28;20023;-65
2023/05/31 06:16:43;;;;;;;18.35;13.00;;;;;;;;;;5100897;28;20641;-65
2023/05/31 06:19:08;;;;;;;13.27;11.88;;;;;;;;;;5090277;28;20458;-64
2023/05/31 06:21:33;;;;;;;16.88;11.45;;;;;;;;;;5105237;28;20036;-64
2023/05/31 06:24:00;;;;;;;16.42;11.70;;;;;;;;;;5110842;28;20035;-64
2023/05/31 06:26:25;;;;;;;13.70;10.45;;;;;;;;;;5108543;28;20050;-64
2023/05/31 06:28:51;;;;;;;14.57;11.90;;;;;;;;;;5108721;28;20082;-64
2023/05/31 06:31:16;;;;;;;19.42;11.82;;;;;;;;;;5104721;28;20023;-64
2023/05/31 06:33:41;;;;;;;14.82;10.60;;;;;;;;;;5112244;28;20422;-65
2023/05/31 06:36:07;;;;;;;14.00;10.10;;;;;;;;;;5104418;28;20041;-65
2023/05/31 06:38:33;;;;;;;17.38;11.18;;;;;;;;;;5108493;28;20026;-65
2023/05/31 06:40:58;;;;;;;16.50;11.60;;;;;;;;;;5104526;28;20020;-65
2023/05/31 06:43:24;;;;;;;15.05;10.27;;;;;;;;;;5108339;28;20095;-65
2023/05/31 06:45:50;;;;;;;11.95;10.30;;;;;;;;;;5104218;28;20093;-64
2023/05/31 06:48:15;;;;;;;14.07;10.20;;;;;;;;;;5108431;28;20045;-65
2023/05/31 06:50:40;;;;;;;16.27;9.70;;;;;;;;;;5104448;28;20097;-65
2023/05/31 06:53:09;;;;;;;13.93;9.40;;;;;;;;;;5108387;28;20285;-65
2023/05/31 06:55:34;;;;;;;21.35;9.73;;;;;;;;;;5112463;28;20035;-64
2023/05/31 06:57:59;;;;;;;15.60;10.52;;;;;;;;;;5111800;28;20023;-64
2023/05/31 07:00:25;;;;;;;12.25;9.75;;;;;;;;;;5105016;28;20015;-63
2023/05/31 07:02:50;;;;;;;14.43;9.75;;;;;;;;;;5103015;28;20481;-64
2023/05/31 07:05:16;;;;;;;12.93;8.98;;;;;;;;;;5111991;28;20168;-65
2023/05/31 07:07:41;;;;;;;11.35;8.30;;;;;;;;;;5111566;28;20386;-64
2023/05/31 07:10:07;;;;;;;12.32;9.07;;;;;;;;;;5112140;28;20019;-65
2023/05/31 07:12:32;;;;;;;16.55;9.60;;;;;;;;;;5111159;28;20389;-64
2023/05/31 07:14:57;;;;;;;17.30;9.18;;;;;;;;;;5098029;28;20012;-64
2023/05/31 07:17:22;;;;;;;16.50;10.40;;;;;;;;;;5111579;28;20019;-64
2023/05/31 07:19:51;;;;;;;12.27;8.80;;;;;;;;;;5111011;28;20039;-65
2023/05/31 07:22:19;;;;;;;18.70;9.38;;;;;;;;;;5111155;28;20273;-64
2023/05/31 07:24:44;;;;;;;16.27;9.30;;;;;;;;;;5111001;28;20051;-64
2023/05/31 07:27:10;;;;;;;12.93;9.30;;;;;;;;;;5111396;28;20090;-64
2023/05/31 07:29:35;;;;;;;13.45;9.50;;;;;;;;;;5097824;28;20065;-64
2023/05/31 07:32:01;;;;;;;14.95;8.48;;;;;;;;;;5100294;28;20028;-65
2023/05/31 07:34:26;;;;;;;14.65;9.10;;;;;;;;;;5108932;28;20028;-65
2023/05/31 07:36:51;;;;;;;13.70;8.50;;;;;;;;;;5111342;28;20088;-64
2023/05/31 07:39:17;;;;;;;11.85;9.43;;;;;;;;;;5111066;28;20034;-64
2023/05/31 07:41:42;;;;;;;18.80;9.70;;;;;;;;;;5111845;28;20020;-64
2023/05/31 07:44:08;;;;;;;15.15;8.73;;;;;;;;;;5074793;28;20406;-65
2023/05/31 07:46:34;;;;;;;13.93;8.25;;;;;;;;;;5091463;28;20068;-65
2023/05/31 07:48:59;;;;;;;12.18;8.88;;;;;;;;;;5091054;28;20093;-65
2023/05/31 07:51:24;;;;;;;13.52;9.75;;;;;;;;;;5091913;28;20064;-64
2023/05/31 07:53:50;;;;;;;13.65;8.40;;;;;;;;;;5092496;28;20054;-65
2023/05/31 07:56:15;;;;;;;22.00;8.57;;;;;;;;;;5090851;28;20471;-65
2023/05/31 07:58:40;;;;;;;10.40;7.80;;;;;;;;;;5092240;28;20024;-65
2023/05/31 08:01:05;;;;;;;13.07;8.33;;;;;;;;;;5091348;28;20043;-65
2023/05/31 08:03:31;;;;;;;13.63;8.38;;;;;;;;;;5101234;28;20277;-65
2023/05/31 08:05:56;;;;;;;13.45;8.52;;;;;;;;;;5106834;28;20550;-65
2023/05/31 08:08:21;;;;;;;10.48;7.43;;;;;;;;;;5107178;28;20389;-64
2023/05/31 08:10:47;;;;;;;13.73;8.15;;;;;;;;;;5107097;28;20062;-65
2023/05/31 08:13:12;;;;;;;15.67;8.67;;;;;;;;;;5104952;28;20073;-65
2023/05/31 08:15:37;;;;;;;11.60;8.55;;;;;;;;;;5099190;28;20767;-64
2023/05/31 08:18:03;;;;;;;10.98;7.47;;;;;;;;;;5109971;28;20068;-65
2023/05/31 08:20:28;;;;;;;11.85;8.57;;;;;;;;;;5110270;28;20023;-65
2023/05/31 08:22:53;;;;;;;12.73;8.15;;;;;;;;;;5108728;28;20078;-64
2023/05/31 08:25:19;;;;;;;13.65;7.63;;;;;;;;;;5090427;28;20562;-65
2023/05/31 08:27:44;;;;;;;10.02;8.13;;;;;;;;;;5104156;28;20080;-65
2023/05/31 08:30:09;;;;;;;13.93;7.95;;;;;;;;;;5098661;28;20026;-64
2023/05/31 08:32:35;;;;;;;11.40;8.10;;;;;;;;;;5078466;28;20055;-65
2023/05/31 08:35:01;;;;;;;10.05;7.45;;;;;;;;;;5109514;28;20462;-64
2023/05/31 08:37:26;;;;;;;11.77;7.10;;;;;;;;;;5109467;28;20027;-65
2023/05/31 08:39:51;;;;;;;7.97;5.95;;;;;;;;;;5110234;28;20027;-65
2023/05/31 08:42:19;;;;;;;17.07;7.47;;;;;;;;;;5109471;28;20028;-63
2023/05/31 08:44:45;;;;;;;14.65;6.63;;;;;;;;;;5110893;28;20288;-65
2023/05/31 08:47:12;;;;;;;14.07;6.97;;;;;;;;;;5108536;28;20032;-65
2023/05/31 08:49:39;;;;;;;12.85;7.75;;;;;;;;;;5109267;28;20112;-64
2023/05/31 08:52:06;;;;;;;11.75;7.50;;;;;;;;;;5108723;28;20092;-65
2023/05/31 08:54:31;;;;;;;11.23;8.40;;;;;;;;;;5108321;28;20031;-65
2023/05/31 08:56:56;;;;;;;17.52;7.72;;;;;;;;;;5107934;28;20015;-65
2023/05/31 08:59:22;;;;;;;11.88;7.15;;;;;;;;;;5108369;28;20027;-65
2023/05/31 09:01:47;;;;;;;15.30;7.60;;;;;;;;;;5105746;28;20020;-65
2023/05/31 09:04:13;;;;;;;18.90;7.70;;;;;;;;;;5106062;28;20016;-65
2023/05/31 09:06:39;;;;;;;11.93;6.28;;;;;;;;;;5102556;28;20525;-65
2023/05/31 09:09:08;;;;;;;15.77;7.65;;;;;;;;;;5108992;28;20046;-65
2023/05/31 09:11:37;;;;;;;10.45;7.03;;;;;;;;;;5093708;28;20123;-64
2023/05/31 09:14:02;;;;;;;11.10;6.45;;;;;;;;;;5094014;28;20028;-65
2023/05/31 09:16:28;;;;;;;14.77;8.40;;;;;;;;;;5093494;28;20145;-64
2023/05/31 09:19:01;;;;;;;12.75;7.53;;;;;;;;;;5102748;28;20070;-65
2023/05/31 09:21:26;;;;;;;12.05;7.60;;;;;;;;;;5099613;28;20482;-64
2023/05/31 09:23:53;;;;;;;14.52;7.80;;;;;;;;;;5113762;28;20030;-64
2023/05/31 09:26:18;;;;;;;10.88;6.57;;;;;;;;;;5113157;28;20448;-64
2023/05/31 09:28:47;;;;;;;9.00;6.13;;;;;;;;;;5113323;28;20118;-65
2023/05/31 09:31:15;;;;;;;10.10;6.30;;;;;;;;;;5113547;28;20027;-65
2023/05/31 09:33:41;;;;;;;10.73;6.32;;;;;;;;;;5112598;28;20023;-65
2023/05/31 09:36:07;;;;;;;10.95;5.97;;;;;;;;;;5112908;28;20020;-65
2023/05/31 09:38:33;;;;;;;8.80;5.72;;;;;;;;;;5113536;28;20043;-64
2023/05/31 09:41:12;;;;;;;13.10;6.68;;;;;;;;;;5113117;28;20098;-65
2023/05/31 09:43:44;;;;;;;13.95;6.82;;;;;;;;;;5099274;28;20020;-65
2023/05/31 09:46:13;;;;;;;10.05;7.32;;;;;;;;;;5056896;28;20040;-66
2023/05/31 09:48:38;;;;;;;12.90;6.88;;;;;;;;;;5069269;28;20126;-65
2023/05/31 09:51:06;;;;;;;14.65;7.82;;;;;;;;;;5082666;28;20382;-65
2023/05/31 09:53:31;;;;;;;13.90;6.32;;;;;;;;;;5101031;28;20110;-65
2023/05/31 09:55:57;;;;;;;11.55;6.25;;;;;;;;;;5112977;28;20111;-66
2023/05/31 09:58:32;;;;;;;13.02;5.80;;;;;;;;;;5112489;28;20701;-65
2023/05/31 10:01:00;;;;;;;16.10;7.05;;;;;;;;;;5111630;28;20027;-65
2023/05/31 10:03:28;;;;;;;14.57;6.18;;;;;;;;;;5112132;28;20024;-64
2023/05/31 10:05:54;;;;;;;10.18;6.40;;;;;;;;;;5112363;28;20019;-65
2023/05/31 10:08:20;;;;;;;16.98;6.68;;;;;;;;;;5101157;28;20304;-64
2023/05/31 10:10:48;;;;;;;13.32;6.90;;;;;;;;;;5111334;28;20047;-64
2023/05/31 10:13:14;;;;;;;10.50;5.82;;;;;;;;;;5110001;28;20023;-63
2023/05/31 10:15:40;;;;;;;9.52;6.07;;;;;;;;;;5102014;28;20080;-64
2023/05/31 10:18:16;;;;;;;13.45;6.00;;;;;;;;;;5108563;28;20031;-65
2023/05/31 10:20:43;;;;;;;12.75;6.55;;;;;;;;;;5103083;28;20020;-64
2023/05/31 10:23:15;;;;;;;9.15;5.78;;;;;;;;;;5102875;28;20027;-64
2023/05/31 10:26:00;;;;;;;15.48;6.35;;;;;;;;;;5096442;28;20024;-64
2023/05/31 10:28:28;;;;;;;9.10;4.70;;;;;;;;;;5081888;28;20042;-64
2023/05/31 10:30:54;;;;;;;9.07;5.07;;;;;;;;;;5095648;28;20077;-64
2023/05/31 10:33:20;;;;;;;6.95;4.00;;;;;;;;;;5095945;28;20078;-65
2023/05/31 10:35:45;;;;;;;11.35;5.00;;;;;;;;;;5095177;28;20046;-65
2023/05/31 10:38:12;;;;;;;11.27;5.53;;;;;;;;;;5103581;28;20106;-64
2023/05/31 10:40:43;;;;;;;10.38;5.72;;;;;;;;;;5095695;28;20505;-64
2023/05/31 10:43:14;;;;;;;11.23;5.47;;;;;;;;;;5097951;28;20111;-64
2023/05/31 10:45:45;;;;;;;6.70;4.90;;;;;;;;;;5097057;28;20103;-65
2023/05/31 10:48:10;;;;;;;8.30;4.88;;;;;;;;;;5096414;28;20020;-64
2023/05/31 10:50:50;;;;;;;10.93;6.37;;;;;;;;;;5097591;28;20555;-64
2023/05/31 10:53:16;;;;;;;9.93;4.50;;;;;;;;;;5095378;28;20028;-64
2023/05/31 10:55:44;;;;;;;12.00;5.80;;;;;;;;;;5098137;28;20526;-64
2023/05/31 10:58:32;;;;;;;11.80;5.53;;;;;;;;;;5096734;28;20310;-64
2023/05/31 11:01:02;;;;;;;11.10;4.45;;;;;;;;;;5091391;28;20138;-65
2023/05/31 11:03:29;;;;;;;10.10;5.65;;;;;;;;;;5111052;28;20411;-64
2023/05/31 11:05:59;;;;;;;7.65;5.57;;;;;;;;;;5108267;28;20436;-64
2023/05/31 11:08:24;;;;;;;12.82;5.30;;;;;;;;;;5101135;28;20024;-64
2023/05/31 11:10:50;;;;;;;13.02;5.00;;;;;;;;;;5109405;28;20521;-64
2023/05/31 11:13:16;;;;;;;12.40;4.70;;;;;;;;;;5107728;28;20566;-65
2023/05/31 11:15:43;;;;;;;7.40;4.28;;;;;;;;;;5092185;28;20327;-64
2023/05/31 11:18:11;;;;;;;11.63;5.43;;;;;;;;;;5107945;28;20030;-64
2023/05/31 11:20:37;;;;;;;12.68;5.22;;;;;;;;;;5092974;28;20085;-64
2023/05/31 11:23:20;;;;;;;9.02;4.18;;;;;;;;;;5105845;28;20027;-63
2023/05/31 11:26:04;;;;;;;7.90;3.53;;;;;;;;;;5103392;28;20094;-64
2023/05/31 11:28:29;;;;;;;8.90;4.25;;;;;;;;;;5093658;28;20031;-64
2023/05/31 11:30:54;;;;;;;4.78;3.60;;;;;;;;;;5099423;28;20013;-63
2023/05/31 11:33:22;;;;;;;10.23;3.93;;;;;;;;;;5106110;28;20049;-64
2023/05/31 11:35:47;;;;;;;9.38;3.92;;;;;;;;;;5106032;28;20262;-64
2023/05/31 11:38:12;;;;;;;9.70;4.30;;;;;;;;;;5105829;28;20076;-65
2023/05/31 11:40:38;;;;;;;7.53;4.03;;;;;;;;;;5102053;28;20474;-64
2023/05/31 11:43:04;;;;;;;7.15;4.05;;;;;;;;;;5106289;28;20051;-64
2023/05/31 11:45:30;;;;;;;10.75;4.32;;;;;;;;;;5102117;28;20024;-64
2023/05/31 11:48:04;;;;;;;9.65;4.50;;;;;;;;;;5106709;28;20028;-64
2023/05/31 11:50:30;;;;;;;14.43;4.90;;;;;;;;;;5103216;28;20035;-60
2023/05/31 11:52:58;;;;;;;8.95;4.68;;;;;;;;;;5106601;28;20055;-63
2023/05/31 11:55:30;;;;;;;6.10;3.88;;;;;;;;;;5102853;28;20537;-63
2023/05/31 11:57:56;;;;;;;7.65;4.18;;;;;;;;;;5106176;28;20620;-63
2023/05/31 12:00:21;;;;;;;7.75;3.97;;;;;;;;;;5110360;28;20031;-64
2023/05/31 12:02:51;;;;;;;8.68;4.32;;;;;;;;;;5105102;28;20062;-62
2023/05/31 12:05:16;;;;;;;8.15;4.47;;;;;;;;;;5097160;28;20023;-64
2023/05/31 12:07:42;;;;;;;8.05;4.32;;;;;;;;;;5102756;28;20039;-64
2023/05/31 12:10:08;;;;;;;11.13;4.35;;;;;;;;;;5089688;28;20028;-64
2023/05/31 12:12:33;;;;;;;9.88;4.18;;;;;;;;;;5103952;28;20153;-64
2023/05/31 12:14:58;;;;;;;7.60;3.90;;;;;;;;;;5094111;28;20050;-63
2023/05/31 12:17:25;;;;;;;7.50;4.30;;;;;;;;;;5100457;28;20136;-64
2023/05/31 12:19:50;;;;;;;11.57;4.63;;;;;;;;;;5103138;28;20030;-64
2023/05/31 12:22:16;;;;;;;9.60;3.97;;;;;;;;;;5103606;28;20024;-65
2023/05/31 12:24:48;;;;;;;10.10;4.23;;;;;;;;;;5104265;28;20285;-64
2023/05/31 12:27:14;;;;;;;10.65;4.07;;;;;;;;;;5105427;28;20321;-64
2023/05/31 12:29:40;;;;;;;13.10;4.25;;;;;;;;;;5105865;28;20020;-64
2023/05/31 12:32:05;;;;;;;11.07;3.73;;;;;;;;;;5099773;28;20142;-64
2023/05/31 12:34:35;;;;;;;22.30;4.65;;;;;;;;;;5104073;28;20829;-64
2023/05/31 12:37:04;;;;;;;8.55;4.20;;;;;;;;;;5098886;28;20023;-64
2023/05/31 12:39:30;;;;;;;7.85;4.43;;;;;;;;;;5105973;28;20028;-64
2023/05/31 12:41:57;;;;;;;17.42;4.28;;;;;;;;;;5109128;28;20669;-63
2023/05/31 12:44:22;;;;;;;9.05;4.40;;;;;;;;;;5112449;28;20023;-62
2023/05/31 12:46:49;;;;;;;7.78;3.95;;;;;;;;;;5110194;28;20531;-64
2023/05/31 12:49:23;;;;;;;15.07;3.67;;;;;;;;;;5110722;28;20434;-63
2023/05/31 12:51:48;;;;;;;;;;;;;;;;;;5109280;28;20073;-64
2023/05/31 12:54:17;;;;;;;13.30;4.23;;;;;;;;;;5111888;28;19911;-63
2023/05/31 12:56:42;;;;;;;11.52;3.97;;;;;;;;;;5108229;28;20035;-62
2023/05/31 12:59:08;;;;;;;8.90;3.20;;;;;;;;;;5107288;28;20034;-64
2023/05/31 13:01:34;;;;;;;6.63;4.07;;;;;;;;;;5109355;28;20313;-62
2023/05/31 13:04:00;;;;;;;6.60;4.07;;;;;;;;;;5106262;28;20055;-64
2023/05/31 13:06:25;;;;;;;9.63;4.30;;;;;;;;;;5112707;28;20053;-63
2023/05/31 13:08:50;;;;;;;8.37;4.10;;;;;;;;;;5112293;28;20027;-62
2023/05/31 13:11:15;;;;;;;5.80;3.50;;;;;;;;;;5111862;28;20326;-63
2023/05/31 13:13:42;;;;;;;15.43;4.07;;;;;;;;;;5105924;28;20477;-63
2023/05/31 13:16:07;;;;;;;15.65;3.70;;;;;;;;;;5093794;28;20032;-63
2023/05/31 13:18:33;;;;;;;6.72;3.33;;;;;;;;;;5096497;28;20160;-64
2023/05/31 13:20:58;;;;;;;7.50;3.33;;;;;;;;;;5090983;28;20028;-63
2023/05/31 13:23:23;;;;;;;8.20;3.93;;;;;;;;;;5097784;28;20752;-64
2023/05/31 13:25:49;;;;;;;7.47;3.88;;;;;;;;;;5097100;28;20282;-64
2023/05/31 13:28:14;;;;;;;5.90;3.22;;;;;;;;;;5112182;28;20012;-64
2023/05/31 13:30:39;;;;;;;6.60;3.00;;;;;;;;;;5101398;28;20036;-63
2023/05/31 13:33:04;;;;;;;12.57;3.90;;;;;;;;;;5097189;28;20272;-64
2023/05/31 13:35:30;;;;;;;6.93;3.27;;;;;;;;;;5095460;28;20281;-64
2023/05/31 13:37:55;;;;;;;5.73;3.03;;;;;;;;;;5098345;28;20265;-64
2023/05/31 13:40:20;;;;;;;9.65;3.88;;;;;;;;;;5093448;28;20282;-64
2023/05/31 13:42:46;;;;;;;8.45;3.17;;;;;;;;;;5095153;28;20028;-64
2023/05/31 13:45:11;;;;;;;8.77;3.17;;;;;;;;;;5105777;28;20046;-63
2023/05/31 13:47:36;;;;;;;9.45;3.92;;;;;;;;;;5097480;28;20058;-64
2023/05/31 13:50:02;;;;;;;5.10;3.07;;;;;;;;;;5099028;28;20020;-64
2023/05/31 13:52:28;;;;;;;5.85;3.45;;;;;;;;;;5096886;28;20322;-62
2023/05/31 13:54:53;;;;;;;8.68;3.13;;;;;;;;;;5094937;28;20111;-65
2023/05/31 13:57:18;;;;;;;8.30;3.42;;;;;;;;;;5098391;28;20020;-63
2023/05/31 13:59:43;;;;;;;9.20;3.42;;;;;;;;;;5095542;28;20451;-63
2023/05/31 14:02:09;;;;;;;8.60;3.20;;;;;;;;;;5108904;28;20019;-62
2023/05/31 14:04:34;;;;;;;8.13;3.33;;;;;;;;;;5102169;28;20740;-64
2023/05/31 14:06:59;;;;;;;8.70;3.78;;;;;;;;;;5099843;28;20314;-64
2023/05/31 14:09:26;;;;;;;4.78;2.95;;;;;;;;;;5106129;28;20035;-65
2023/05/31 14:11:51;;;;;;;9.40;3.72;;;;;;;;;;5102537;28;20028;-64
2023/05/31 14:14:16;;;;;;;6.00;2.97;;;;;;;;;;5106262;28;20016;-65
2023/05/31 14:16:41;;;;;;;10.32;3.08;;;;;;;;;;5099042;28;20382;-66
2023/05/31 14:19:07;;;;;;;8.95;2.83;;;;;;;;;;5111653;28;20385;-64
2023/05/31 14:21:33;;;;;;;6.32;2.55;;;;;;;;;;5108268;28;20024;-65
2023/05/31 14:23:58;;;;;;;7.97;3.00;;;;;;;;;;5110669;28;20039;-63